GAP2996 RPMZ-RPVM
Flight info
| Callsign | GAP2996 |
|---|---|
| Flight time | 0h 48m |
| Altitude | 28000 |
| Route | PARAL1W PARAL G578 ALDIN ALDIN3P |
| Aircraft | A320/M-SDE3FGHIRWY/LB1 |
Departure
| Time | 2026-04-23 04:16 |
|---|---|
| Airport | Zamboanga International Airport (RPMZ) |
Arrival
| Time | 2026-04-23 05:05 |
|---|---|
| Airport | Mactan Cebu International Airport (RPVM) |
| Time | Latitude | Longitude | Altitude | Speed | Heading |
|---|---|---|---|---|---|
| 2026-04-23 04:06 | 6.92052 | 122.06189 | 36 ft | 0 kts | 155° |
| 2026-04-23 04:10 | 6.92051 | 122.06200 | 34 ft | 1 kts | 76° |
| 2026-04-23 04:10 | 6.92058 | 122.06207 | 34 ft | 3 kts | 40° |
| 2026-04-23 04:11 | 6.92075 | 122.06217 | 36 ft | 2 kts | 30° |
| 2026-04-23 04:11 | 6.92088 | 122.06224 | 37 ft | 5 kts | 30° |
| 2026-04-23 04:11 | 6.92127 | 122.06245 | 34 ft | 9 kts | 22° |
| 2026-04-23 04:11 | 6.92179 | 122.06253 | 37 ft | 7 kts | 5° |
| 2026-04-23 04:12 | 6.92217 | 122.06280 | 36 ft | 10 kts | 75° |
| 2026-04-23 04:12 | 6.92215 | 122.06368 | 36 ft | 13 kts | 94° |
| 2026-04-23 04:12 | 6.92209 | 122.06465 | 34 ft | 19 kts | 94° |
| 2026-04-23 04:12 | 6.92200 | 122.06603 | 37 ft | 16 kts | 94° |
| 2026-04-23 04:13 | 6.92193 | 122.06708 | 37 ft | 14 kts | 94° |
| 2026-04-23 04:13 | 6.92187 | 122.06808 | 36 ft | 18 kts | 95° |
| 2026-04-23 04:13 | 6.92176 | 122.06971 | 35 ft | 24 kts | 93° |
| 2026-04-23 04:13 | 6.92181 | 122.07066 | 35 ft | 10 kts | 68° |
| 2026-04-23 04:14 | 6.92198 | 122.07107 | 34 ft | 0 kts | 68° |
| 2026-04-23 04:14 | 6.92187 | 122.07120 | 37 ft | 6 kts | 135° |
| 2026-04-23 04:14 | 6.92168 | 122.07121 | 36 ft | 1 kts | 224° |
| 2026-04-23 04:15 | 6.92168 | 122.07120 | 36 ft | 0 kts | 233° |
| 2026-04-23 04:15 | 6.92166 | 122.07110 | 36 ft | 5 kts | 261° |
| 2026-04-23 04:15 | 6.92173 | 122.07027 | 36 ft | 36 kts | 273° |
| 2026-04-23 04:16 | 6.92205 | 122.06520 | 36 ft | 105 kts | 275° |
| 2026-04-23 04:16 | 6.92260 | 122.05592 | 43 ft | 157 kts | 272° |
| 2026-04-23 04:16 | 6.92349 | 122.04424 | 439 ft | 172 kts | 274° |
| 2026-04-23 04:16 | 6.92433 | 122.03217 | 1152 ft | 175 kts | 274° |
| 2026-04-23 04:17 | 6.92517 | 122.01950 | 1693 ft | 188 kts | 274° |
| 2026-04-23 04:17 | 6.92613 | 122.00602 | 2162 ft | 200 kts | 274° |
| 2026-04-23 04:17 | 6.92709 | 121.99152 | 2553 ft | 215 kts | 274° |
| 2026-04-23 04:17 | 6.92813 | 121.97598 | 2941 ft | 231 kts | 274° |
| 2026-04-23 04:18 | 6.92923 | 121.95935 | 3332 ft | 250 kts | 274° |
| 2026-04-23 04:18 | 6.93069 | 121.94133 | 3826 ft | 267 kts | 281° |
| 2026-04-23 04:18 | 6.93898 | 121.92464 | 4497 ft | 272 kts | 316° |
| 2026-04-23 04:18 | 6.95467 | 121.91395 | 5249 ft | 276 kts | 336° |
| 2026-04-23 04:19 | 6.97271 | 121.90694 | 6000 ft | 280 kts | 343° |
| 2026-04-23 04:19 | 6.99145 | 121.90111 | 6746 ft | 284 kts | 344° |
| 2026-04-23 04:19 | 7.01074 | 121.89510 | 7476 ft | 289 kts | 343° |
| 2026-04-23 04:19 | 7.02962 | 121.88869 | 8191 ft | 293 kts | 341° |
| 2026-04-23 04:20 | 7.04874 | 121.88158 | 8903 ft | 296 kts | 340° |
| 2026-04-23 04:20 | 7.06862 | 121.87546 | 9611 ft | 299 kts | 353° |
| 2026-04-23 04:20 | 7.08938 | 121.87560 | 10269 ft | 300 kts | 12° |
| 2026-04-23 04:20 | 7.10927 | 121.88258 | 10707 ft | 310 kts | 32° |
| 2026-04-23 04:21 | 7.12643 | 121.89638 | 11054 ft | 323 kts | 45° |
| 2026-04-23 04:21 | 7.14302 | 121.91253 | 11343 ft | 339 kts | 45° |
| 2026-04-23 04:21 | 7.16018 | 121.92921 | 11825 ft | 346 kts | 46° |
| 2026-04-23 04:21 | 7.17523 | 121.94821 | 12446 ft | 348 kts | 59° |
| 2026-04-23 04:22 | 7.18577 | 121.97018 | 13065 ft | 350 kts | 71° |
| 2026-04-23 04:22 | 7.19391 | 121.99343 | 13663 ft | 354 kts | 71° |
| 2026-04-23 04:22 | 7.20220 | 122.01694 | 14195 ft | 357 kts | 71° |
| 2026-04-23 04:22 | 7.21062 | 122.04064 | 14737 ft | 360 kts | 70° |
| 2026-04-23 04:23 | 7.21910 | 122.06446 | 15264 ft | 363 kts | 70° |
| 2026-04-23 04:23 | 7.22764 | 122.08847 | 15794 ft | 366 kts | 70° |
| 2026-04-23 04:23 | 7.23628 | 122.11267 | 16321 ft | 368 kts | 70° |
| 2026-04-23 04:23 | 7.24497 | 122.13702 | 16831 ft | 371 kts | 70° |
| 2026-04-23 04:24 | 7.25369 | 122.16156 | 17342 ft | 374 kts | 71° |
| 2026-04-23 04:24 | 7.26250 | 122.18636 | 17847 ft | 377 kts | 71° |
| 2026-04-23 04:24 | 7.27134 | 122.21127 | 18319 ft | 379 kts | 71° |
| 2026-04-23 04:24 | 7.28177 | 122.23572 | 18753 ft | 382 kts | 61° |
| 2026-04-23 04:25 | 7.29704 | 122.25764 | 19191 ft | 385 kts | 49° |
| 2026-04-23 04:25 | 7.31671 | 122.27600 | 19625 ft | 388 kts | 37° |
| 2026-04-23 04:25 | 7.33985 | 122.29028 | 20053 ft | 391 kts | 30° |
| 2026-04-23 04:25 | 7.36367 | 122.30373 | 20476 ft | 394 kts | 30° |
| 2026-04-23 04:26 | 7.38760 | 122.31729 | 20911 ft | 396 kts | 30° |
| 2026-04-23 04:26 | 7.41171 | 122.33097 | 21340 ft | 399 kts | 30° |
| 2026-04-23 04:26 | 7.43591 | 122.34472 | 21767 ft | 401 kts | 30° |
| 2026-04-23 04:26 | 7.46035 | 122.35860 | 22196 ft | 404 kts | 30° |
| 2026-04-23 04:27 | 7.48485 | 122.37250 | 22616 ft | 406 kts | 30° |
| 2026-04-23 04:27 | 7.50958 | 122.38653 | 23037 ft | 408 kts | 30° |
| 2026-04-23 04:27 | 7.53441 | 122.40060 | 23443 ft | 411 kts | 31° |
| 2026-04-23 04:28 | 7.58412 | 122.42888 | 24093 ft | 415 kts | 31° |
| 2026-04-23 04:28 | 7.60968 | 122.44343 | 24419 ft | 417 kts | 30° |
| 2026-04-23 04:28 | 7.63503 | 122.45784 | 24733 ft | 420 kts | 30° |
| 2026-04-23 04:28 | 7.66020 | 122.47217 | 25035 ft | 422 kts | 30° |
| 2026-04-23 04:29 | 7.68614 | 122.48693 | 25350 ft | 424 kts | 30° |
| 2026-04-23 04:29 | 7.71191 | 122.50156 | 25650 ft | 426 kts | 30° |
| 2026-04-23 04:29 | 7.73774 | 122.51622 | 25952 ft | 428 kts | 30° |
| 2026-04-23 04:29 | 7.76343 | 122.53085 | 26240 ft | 430 kts | 30° |
| 2026-04-23 04:30 | 7.78951 | 122.54569 | 26522 ft | 432 kts | 30° |
| 2026-04-23 04:30 | 7.81572 | 122.56059 | 26783 ft | 434 kts | 30° |
| 2026-04-23 04:30 | 7.84225 | 122.57570 | 26911 ft | 440 kts | 30° |
| 2026-04-23 04:30 | 7.86905 | 122.59098 | 27075 ft | 444 kts | 30° |
| 2026-04-23 04:31 | 7.89603 | 122.60633 | 27304 ft | 447 kts | 30° |
| 2026-04-23 04:31 | 7.92317 | 122.62177 | 27549 ft | 449 kts | 30° |
| 2026-04-23 04:31 | 7.95042 | 122.63726 | 27784 ft | 451 kts | 30° |
| 2026-04-23 04:31 | 7.97779 | 122.65281 | 27875 ft | 451 kts | 30° |
| 2026-04-23 04:32 | 8.00510 | 122.66838 | 27886 ft | 451 kts | 30° |
| 2026-04-23 04:32 | 8.03238 | 122.68394 | 27885 ft | 451 kts | 30° |
| 2026-04-23 04:32 | 8.05968 | 122.69951 | 27888 ft | 451 kts | 30° |
| 2026-04-23 04:32 | 8.08698 | 122.71507 | 27885 ft | 451 kts | 30° |
| 2026-04-23 04:33 | 8.11429 | 122.73060 | 27886 ft | 451 kts | 30° |
| 2026-04-23 04:33 | 8.14158 | 122.74612 | 27884 ft | 451 kts | 30° |
| 2026-04-23 04:33 | 8.16889 | 122.76166 | 27886 ft | 451 kts | 30° |
| 2026-04-23 04:33 | 8.19621 | 122.77724 | 27798 ft | 450 kts | 30° |
| 2026-04-23 04:34 | 8.22328 | 122.79266 | 27348 ft | 443 kts | 30° |
| 2026-04-23 04:34 | 8.24995 | 122.80783 | 26888 ft | 436 kts | 30° |
| 2026-04-23 04:34 | 8.27618 | 122.82272 | 26433 ft | 429 kts | 30° |
| 2026-04-23 04:34 | 8.30201 | 122.83736 | 25993 ft | 422 kts | 30° |
| 2026-04-23 04:35 | 8.32742 | 122.85175 | 25553 ft | 416 kts | 30° |
| 2026-04-23 04:35 | 8.35256 | 122.86598 | 25118 ft | 411 kts | 30° |
| 2026-04-23 04:35 | 8.37729 | 122.88000 | 24692 ft | 406 kts | 31° |
| 2026-04-23 04:35 | 8.40177 | 122.89389 | 24281 ft | 401 kts | 31° |
| 2026-04-23 04:36 | 8.42594 | 122.90760 | 23863 ft | 396 kts | 31° |
| 2026-04-23 04:36 | 8.44985 | 122.92119 | 23449 ft | 392 kts | 31° |
| 2026-04-23 04:36 | 8.47349 | 122.93461 | 22965 ft | 388 kts | 31° |
| 2026-04-23 04:36 | 8.49692 | 122.94794 | 22481 ft | 385 kts | 31° |
| 2026-04-23 04:37 | 8.52015 | 122.96117 | 22012 ft | 382 kts | 31° |
| 2026-04-23 04:37 | 8.54319 | 122.97428 | 21543 ft | 379 kts | 31° |
| 2026-04-23 04:37 | 8.56608 | 122.98731 | 21079 ft | 376 kts | 31° |
| 2026-04-23 04:37 | 8.58873 | 123.00023 | 20633 ft | 373 kts | 30° |
| 2026-04-23 04:38 | 8.61124 | 123.01305 | 20177 ft | 370 kts | 30° |
| 2026-04-23 04:38 | 8.62610 | 123.02149 | 19890 ft | 369 kts | 30° |
| 2026-04-23 04:38 | 8.65464 | 123.03766 | 19336 ft | 366 kts | 30° |
| 2026-04-23 04:38 | 8.67683 | 123.05022 | 18909 ft | 364 kts | 30° |
| 2026-04-23 04:39 | 8.69884 | 123.06273 | 18487 ft | 362 kts | 30° |
| 2026-04-23 04:39 | 8.72074 | 123.07521 | 18057 ft | 361 kts | 30° |
| 2026-04-23 04:39 | 8.74229 | 123.08753 | 17574 ft | 359 kts | 30° |
| 2026-04-23 04:39 | 8.76401 | 123.09993 | 17105 ft | 358 kts | 30° |
| 2026-04-23 04:40 | 8.78566 | 123.11226 | 16637 ft | 357 kts | 30° |
| 2026-04-23 04:40 | 8.80728 | 123.12455 | 16175 ft | 357 kts | 30° |
| 2026-04-23 04:40 | 8.82897 | 123.13688 | 15720 ft | 356 kts | 30° |
| 2026-04-23 04:40 | 8.85049 | 123.14911 | 15272 ft | 355 kts | 29° |
| 2026-04-23 04:41 | 8.87202 | 123.16134 | 14829 ft | 354 kts | 30° |
| 2026-04-23 04:41 | 8.89349 | 123.17358 | 14395 ft | 354 kts | 30° |
| 2026-04-23 04:41 | 8.91489 | 123.18578 | 13967 ft | 353 kts | 30° |
| 2026-04-23 04:41 | 8.93621 | 123.19796 | 13526 ft | 352 kts | 30° |
| 2026-04-23 04:42 | 8.95751 | 123.21009 | 13042 ft | 350 kts | 30° |
| 2026-04-23 04:42 | 8.97868 | 123.22217 | 12571 ft | 349 kts | 30° |
| 2026-04-23 04:42 | 8.99977 | 123.23421 | 12109 ft | 347 kts | 30° |
| 2026-04-23 04:42 | 9.02069 | 123.24613 | 11658 ft | 345 kts | 30° |
| 2026-04-23 04:43 | 9.04154 | 123.25801 | 11202 ft | 343 kts | 30° |
| 2026-04-23 04:43 | 9.06117 | 123.26919 | 10787 ft | 340 kts | 30° |
| 2026-04-23 04:43 | 9.08173 | 123.28091 | 10348 ft | 338 kts | 30° |
| 2026-04-23 04:43 | 9.10210 | 123.29253 | 10035 ft | 331 kts | 30° |
| 2026-04-23 04:44 | 9.12175 | 123.30377 | 9967 ft | 316 kts | 30° |
| 2026-04-23 04:44 | 9.14033 | 123.31440 | 9981 ft | 299 kts | 30° |
| 2026-04-23 04:44 | 9.15839 | 123.32473 | 9984 ft | 298 kts | 30° |
| 2026-04-23 04:44 | 9.17646 | 123.33504 | 9892 ft | 298 kts | 30° |
| 2026-04-23 04:45 | 9.19448 | 123.34532 | 9780 ft | 297 kts | 30° |
| 2026-04-23 04:45 | 9.21247 | 123.35559 | 9655 ft | 296 kts | 30° |
| 2026-04-23 04:45 | 9.23037 | 123.36585 | 9526 ft | 295 kts | 30° |
| 2026-04-23 04:45 | 9.24825 | 123.37609 | 9407 ft | 294 kts | 30° |
| 2026-04-23 04:46 | 9.26604 | 123.38626 | 9276 ft | 293 kts | 30° |
| 2026-04-23 04:46 | 9.28377 | 123.39640 | 9153 ft | 293 kts | 30° |
| 2026-04-23 04:46 | 9.30148 | 123.40654 | 9028 ft | 292 kts | 30° |
| 2026-04-23 04:46 | 9.31903 | 123.41659 | 8900 ft | 291 kts | 30° |
| 2026-04-23 04:47 | 9.33663 | 123.42667 | 8749 ft | 290 kts | 30° |
| 2026-04-23 04:47 | 9.35413 | 123.43672 | 8604 ft | 289 kts | 30° |
| 2026-04-23 04:47 | 9.37160 | 123.44676 | 8456 ft | 288 kts | 30° |
| 2026-04-23 04:47 | 9.38898 | 123.45674 | 8308 ft | 287 kts | 30° |
| 2026-04-23 04:48 | 9.40047 | 123.46333 | 8211 ft | 286 kts | 30° |
| 2026-04-23 04:48 | 9.42337 | 123.47641 | 8020 ft | 285 kts | 30° |
| 2026-04-23 04:48 | 9.44078 | 123.48638 | 7869 ft | 284 kts | 31° |
| 2026-04-23 04:48 | 9.45794 | 123.49621 | 7726 ft | 283 kts | 31° |
| 2026-04-23 04:49 | 9.47503 | 123.50601 | 7588 ft | 282 kts | 31° |
| 2026-04-23 04:49 | 9.48631 | 123.51249 | 7490 ft | 281 kts | 31° |
| 2026-04-23 04:49 | 9.50875 | 123.52535 | 7303 ft | 280 kts | 31° |
| 2026-04-23 04:49 | 9.52024 | 123.53193 | 7207 ft | 279 kts | 31° |
| 2026-04-23 04:50 | 9.53711 | 123.54163 | 7066 ft | 279 kts | 31° |
| 2026-04-23 04:50 | 9.55431 | 123.55154 | 6928 ft | 297 kts | 31° |
| 2026-04-23 04:50 | 9.57840 | 123.56543 | 6767 ft | 300 kts | 31° |
| 2026-04-23 04:50 | 9.59063 | 123.57245 | 6693 ft | 299 kts | 31° |
| 2026-04-23 04:51 | 9.61580 | 123.58369 | 6536 ft | 300 kts | 21° |
| 2026-04-23 04:51 | 9.62908 | 123.58852 | 6453 ft | 299 kts | 21° |
| 2026-04-23 04:51 | 9.64865 | 123.59566 | 6342 ft | 299 kts | 21° |
| 2026-04-23 04:51 | 9.66795 | 123.60273 | 6224 ft | 298 kts | 21° |
| 2026-04-23 04:52 | 9.68766 | 123.60996 | 6104 ft | 297 kts | 21° |
| 2026-04-23 04:52 | 9.70710 | 123.61710 | 5981 ft | 297 kts | 21° |
| 2026-04-23 04:52 | 9.72653 | 123.62423 | 5854 ft | 297 kts | 21° |
| 2026-04-23 04:52 | 9.74590 | 123.63137 | 5733 ft | 296 kts | 22° |
| 2026-04-23 04:53 | 9.76518 | 123.63848 | 5611 ft | 295 kts | 21° |
| 2026-04-23 04:53 | 9.78428 | 123.64551 | 5480 ft | 295 kts | 21° |
| 2026-04-23 04:53 | 9.80358 | 123.65261 | 5371 ft | 295 kts | 21° |
| 2026-04-23 04:53 | 9.82279 | 123.65969 | 5249 ft | 294 kts | 21° |
| 2026-04-23 04:54 | 9.84194 | 123.66675 | 5129 ft | 293 kts | 21° |
| 2026-04-23 04:54 | 9.86109 | 123.67381 | 5010 ft | 289 kts | 22° |
| 2026-04-23 04:54 | 9.87943 | 123.68054 | 4899 ft | 273 kts | 22° |
| 2026-04-23 04:54 | 9.89709 | 123.68702 | 4806 ft | 269 kts | 22° |
| 2026-04-23 04:55 | 9.91469 | 123.69348 | 4713 ft | 270 kts | 21° |
| 2026-04-23 04:55 | 9.93237 | 123.69997 | 4614 ft | 270 kts | 21° |
| 2026-04-23 04:55 | 9.93529 | 123.70105 | 4600 ft | 270 kts | 21° |
| 2026-04-23 04:56 | 9.94712 | 123.70547 | 4524 ft | 270 kts | 22° |
| 2026-04-23 04:56 | 9.96476 | 123.71204 | 4431 ft | 270 kts | 21° |
| 2026-04-23 04:56 | 9.98238 | 123.71857 | 4333 ft | 269 kts | 21° |
| 2026-04-23 04:56 | 9.99995 | 123.72506 | 4224 ft | 269 kts | 21° |
| 2026-04-23 04:57 | 10.01756 | 123.73154 | 4133 ft | 269 kts | 21° |
| 2026-04-23 04:57 | 10.03514 | 123.73800 | 4020 ft | 268 kts | 21° |
| 2026-04-23 04:57 | 10.05269 | 123.74445 | 3980 ft | 268 kts | 21° |
| 2026-04-23 04:57 | 10.07015 | 123.75089 | 3985 ft | 267 kts | 22° |
| 2026-04-23 04:58 | 10.08684 | 123.75911 | 3957 ft | 266 kts | 36° |
| 2026-04-23 04:58 | 10.09971 | 123.77025 | 3840 ft | 257 kts | 46° |
| 2026-04-23 04:58 | 10.11237 | 123.78256 | 3619 ft | 248 kts | 45° |
| 2026-04-23 04:58 | 10.12456 | 123.79430 | 3381 ft | 240 kts | 45° |
| 2026-04-23 04:59 | 10.13636 | 123.80561 | 3145 ft | 227 kts | 45° |
| 2026-04-23 04:59 | 10.14761 | 123.81638 | 3026 ft | 216 kts | 46° |
| 2026-04-23 04:59 | 10.15809 | 123.82647 | 2998 ft | 200 kts | 46° |
| 2026-04-23 04:59 | 10.16758 | 123.83591 | 3030 ft | 182 kts | 47° |
| 2026-04-23 05:00 | 10.17612 | 123.84452 | 3002 ft | 166 kts | 46° |
| 2026-04-23 05:00 | 10.18429 | 123.85277 | 2923 ft | 164 kts | 47° |
| 2026-04-23 05:00 | 10.19187 | 123.86041 | 2832 ft | 146 kts | 47° |
| 2026-04-23 05:00 | 10.19902 | 123.86759 | 2720 ft | 144 kts | 47° |
| 2026-04-23 05:01 | 10.20612 | 123.87474 | 2602 ft | 144 kts | 47° |
| 2026-04-23 05:01 | 10.21324 | 123.88188 | 2486 ft | 143 kts | 46° |
| 2026-04-23 05:01 | 10.22029 | 123.88896 | 2287 ft | 142 kts | 47° |
| 2026-04-23 05:01 | 10.22733 | 123.89606 | 2100 ft | 143 kts | 47° |
| 2026-04-23 05:02 | 10.23443 | 123.90318 | 1908 ft | 144 kts | 47° |
| 2026-04-23 05:02 | 10.24146 | 123.91023 | 1723 ft | 142 kts | 47° |
| 2026-04-23 05:02 | 10.24842 | 123.91723 | 1539 ft | 141 kts | 49° |
| 2026-04-23 05:02 | 10.25538 | 123.92423 | 1356 ft | 141 kts | 47° |
| 2026-04-23 05:03 | 10.26224 | 123.93114 | 1167 ft | 139 kts | 48° |
| 2026-04-23 05:03 | 10.26912 | 123.93805 | 984 ft | 139 kts | 47° |
| 2026-04-23 05:03 | 10.27573 | 123.94478 | 744 ft | 135 kts | 46° |
| 2026-04-23 05:03 | 10.28247 | 123.95158 | 563 ft | 135 kts | 45° |
| 2026-04-23 05:04 | 10.28913 | 123.95825 | 383 ft | 136 kts | 46° |
| 2026-04-23 05:04 | 10.29584 | 123.96509 | 231 ft | 137 kts | 44° |
| 2026-04-23 05:04 | 10.30258 | 123.97182 | 68 ft | 135 kts | 43° |
| 2026-04-23 05:04 | 10.30832 | 123.97758 | 36 ft | 98 kts | 42° |
| 2026-04-23 05:05 | 10.31167 | 123.98091 | 38 ft | 45 kts | 44° |
| 2026-04-23 05:05 | 10.31317 | 123.98240 | 40 ft | 17 kts | 44° |
| 2026-04-23 05:05 | 10.31388 | 123.98302 | 40 ft | 11 kts | 11° |
| 2026-04-23 05:05 | 10.31428 | 123.98282 | 40 ft | 3 kts | 318° |
| 2026-04-23 05:06 | 10.31439 | 123.98272 | 40 ft | 2 kts | 318° |
| 2026-04-23 05:06 | 10.31446 | 123.98266 | 28 ft | 1 kts | 318° |
| 2026-04-23 05:06 | 10.31449 | 123.98263 | 32 ft | 0 kts | 318° |
| 2026-04-23 05:06 | 10.31471 | 123.98242 | 40 ft | 10 kts | 316° |
| 2026-04-23 05:07 | 10.31518 | 123.98195 | 39 ft | 7 kts | 313° |
| 2026-04-23 05:07 | 10.31538 | 123.98173 | 37 ft | 3 kts | 312° |
| 2026-04-23 05:07 | 10.31561 | 123.98146 | 39 ft | 8 kts | 308° |
| 2026-04-23 05:07 | 10.31564 | 123.98105 | 39 ft | 5 kts | 236° |
| 2026-04-23 05:08 | 10.31543 | 123.98083 | 37 ft | 4 kts | 226° |
| 2026-04-23 05:08 | 10.31527 | 123.98066 | 39 ft | 5 kts | 225° |
| 2026-04-23 05:08 | 10.31492 | 123.98031 | 38 ft | 7 kts | 224° |
| 2026-04-23 05:08 | 10.31464 | 123.98002 | 38 ft | 4 kts | 229° |
| 2026-04-23 05:09 | 10.31462 | 123.97985 | 39 ft | 2 kts | 280° |
| 2026-04-23 05:09 | 10.31476 | 123.97964 | 38 ft | 4 kts | 317° |
| 2026-04-23 05:09 | 10.31492 | 123.97949 | 39 ft | 3 kts | 316° |
| 2026-04-23 05:09 | 10.31502 | 123.97938 | 39 ft | 2 kts | 315° |
| 2026-04-23 05:10 | 10.31508 | 123.97933 | 39 ft | 1 kts | 315° |
| 2026-04-23 05:10 | 10.31514 | 123.97926 | 38 ft | 0 kts | 314° |